Time;durP1;ratioP1;P1;durP2;ratioP2;P2;SDS_P1;SDS_P2;PMS_P1;PMS_P2;Temp;Humidity;BMP_temperature;BMP_pressure;BME280_temperature;BME280_humidity;BME280_pressure;Samples;Min_cycle;Max_cycle;Signal;HPM_P1;HPM_P2
2023/06/11 00:01:26;;;;;;;12.43;8.52;;;23.90;99.30;;;;;;7285527;19;20209;-80
2023/06/11 00:03:52;;;;;;;12.23;8.20;;;24.00;99.80;;;;;;7284946;19;20185;-80
2023/06/11 00:06:21;;;;;;;11.32;8.02;;;23.80;99.90;;;;;;7283512;19;20256;-80
2023/06/11 00:08:47;;;;;;;14.35;8.32;;;23.80;99.90;;;;;;7283933;19;20189;-79
2023/06/11 00:11:13;;;;;;;15.23;8.35;;;23.80;99.90;;;;;;7282660;19;20192;-80
2023/06/11 00:13:39;;;;;;;13.40;8.07;;;23.80;99.90;;;;;;7288932;19;20187;-79
2023/06/11 00:16:06;;;;;;;13.90;8.07;;;23.70;99.90;;;;;;7289984;19;20577;-79
2023/06/11 00:18:32;;;;;;;12.43;7.88;;;23.70;99.90;;;;;;7289880;19;20177;-79
2023/06/11 00:20:58;;;;;;;11.43;7.90;;;23.70;99.90;;;;;;7310366;19;20191;-79
2023/06/11 00:23:24;;;;;;;13.07;8.10;;;23.60;99.90;;;;;;7291325;19;20240;-79
2023/06/11 00:25:53;;;;;;;13.45;8.32;;;23.50;99.90;;;;;;7289406;19;20185;-79
2023/06/11 00:28:20;;;;;;;13.60;8.32;;;23.50;99.90;;;;;;7290022;19;20225;-79
2023/06/11 00:30:45;;;;;;;13.43;7.78;;;23.50;99.90;;;;;;7286925;19;20195;-79
2023/06/11 00:33:11;;;;;;;13.63;8.38;;;23.40;99.90;;;;;;7289238;19;20244;-79
2023/06/11 00:35:37;;;;;;;13.40;8.10;;;23.30;99.90;;;;;;7288611;19;20211;-79
2023/06/11 00:38:06;;;;;;;13.07;8.20;;;23.20;99.90;;;;;;7288985;19;20656;-79
2023/06/11 00:40:32;;;;;;;12.80;8.05;;;23.20;99.90;;;;;;7288279;19;20197;-80
2023/06/11 00:42:58;;;;;;;12.38;8.30;;;23.00;99.90;;;;;;7302984;19;20722;-80
2023/06/11 00:45:24;;;;;;;15.75;8.85;;;23.00;99.90;;;;;;7305927;19;20215;-80
2023/06/11 00:47:50;;;;;;;13.27;8.82;;;22.90;99.90;;;;;;7288814;19;20206;-80
2023/06/11 00:50:16;;;;;;;16.60;8.65;;;22.90;99.90;;;;;;7286809;19;20213;-79
2023/06/11 00:52:42;;;;;;;14.32;8.43;;;22.80;99.90;;;;;;7288089;19;20185;-79
2023/06/11 00:55:11;;;;;;;14.15;8.65;;;22.80;99.90;;;;;;7289141;19;20265;-79
2023/06/11 00:57:41;;;;;;;13.37;8.50;;;22.90;99.90;;;;;;7289402;19;20185;-80
2023/06/11 01:00:12;;;;;;;12.75;8.85;;;22.90;99.90;;;;;;7285872;19;20193;-79
2023/06/11 01:02:57;;;;;;;12.57;8.30;;;22.80;99.90;;;;;;7288454;19;20185;-79
2023/06/11 01:05:25;;;;;;;13.02;8.68;;;22.80;99.90;;;;;;7288277;19;20218;-79
2023/06/11 01:07:55;;;;;;;13.52;8.27;;;22.90;99.90;;;;;;7287885;19;20188;-79
2023/06/11 01:10:26;;;;;;;17.13;8.80;;;22.80;99.90;;;;;;7289298;19;20703;-80
2023/06/11 01:12:55;;;;;;;12.85;8.35;;;22.70;99.90;;;;;;7287709;19;20201;-80
2023/06/11 01:15:20;;;;;;;14.10;8.70;;;22.70;99.90;;;;;;7287586;19;20192;-80
2023/06/11 01:17:56;;;;;;;13.10;8.55;;;22.70;99.90;;;;;;7288167;19;20185;-80
2023/06/11 01:20:34;;;;;;;12.98;8.18;;;22.60;99.90;;;;;;7288416;19;20295;-80
2023/06/11 01:23:23;;;;;;;15.57;8.75;;;22.60;99.90;;;;;;7265556;19;20188;-79
2023/06/11 01:26:15;;;;;;;12.43;8.65;;;22.60;99.90;;;;;;7287000;19;20620;-80
2023/06/11 01:28:44;;;;;;;13.27;9.07;;;22.50;99.90;;;;;;7183845;19;2004573;-80
2023/06/11 01:31:15;;;;;;;13.05;8.95;;;22.30;99.90;;;;;;7287626;19;20209;-80
2023/06/11 01:33:44;;;;;;;12.20;8.88;;;22.20;99.90;;;;;;7286747;19;20192;-79
2023/06/11 01:36:14;;;;;;;14.57;8.80;;;22.10;99.90;;;;;;7286357;19;20181;-80
2023/06/11 01:38:42;;;;;;;13.60;9.63;;;22.00;99.90;;;;;;7286775;19;20206;-81
2023/06/11 01:41:12;;;;;;;13.27;9.13;;;22.00;99.90;;;;;;7286422;19;20181;-80
2023/06/11 01:43:40;;;;;;;14.10;8.93;;;22.00;99.90;;;;;;7287435;19;20185;-80
2023/06/11 01:46:06;;;;;;;14.10;9.37;;;22.00;99.90;;;;;;7287223;19;20184;-80
2023/06/11 01:48:33;;;;;;;13.57;9.38;;;22.00;99.90;;;;;;7285229;19;20188;-80
2023/06/11 01:50:59;;;;;;;14.82;9.68;;;21.90;99.90;;;;;;7309146;19;20176;-80
2023/06/11 01:53:25;;;;;;;12.53;9.00;;;21.80;99.90;;;;;;7286809;19;20638;-80
2023/06/11 01:55:51;;;;;;;17.47;9.27;;;21.80;99.90;;;;;;7287526;19;20295;-80
2023/06/11 01:58:18;;;;;;;13.80;9.53;;;21.70;99.90;;;;;;7286289;19;20630;-80
2023/06/11 02:00:44;;;;;;;15.73;8.67;;;21.50;99.90;;;;;;7286669;19;20221;-80
2023/06/11 02:03:11;;;;;;;15.00;9.20;;;21.50;99.90;;;;;;7287859;19;20633;-80
2023/06/11 02:05:36;;;;;;;12.30;8.53;;;21.50;99.90;;;;;;7292001;19;20196;-80
2023/06/11 02:08:03;;;;;;;14.83;8.90;;;21.40;99.90;;;;;;7284727;19;20636;-80
2023/06/11 02:10:28;;;;;;;14.50;9.03;;;21.40;99.90;;;;;;7308959;19;20192;-80
2023/06/11 02:12:54;;;;;;;13.77;9.20;;;21.40;99.90;;;;;;7289042;19;20542;-80
2023/06/11 02:15:20;;;;;;;13.40;9.47;;;21.40;99.90;;;;;;7285906;19;20196;-80
2023/06/11 02:17:46;;;;;;;14.30;8.77;;;21.40;99.90;;;;;;7285932;19;20200;-80
2023/06/11 02:20:15;;;;;;;14.63;9.50;;;21.30;99.90;;;;;;7287019;19;20201;-80
2023/06/11 02:22:41;;;;;;;13.37;8.47;;;21.20;99.90;;;;;;7283652;19;20191;-80
2023/06/11 02:25:07;;;;;;;14.73;9.27;;;21.30;99.90;;;;;;7286257;19;20184;-80
2023/06/11 02:27:33;;;;;;;12.17;9.17;;;21.40;99.90;;;;;;7284776;19;20616;-80
2023/06/11 02:30:01;;;;;;;12.23;8.47;;;21.40;99.90;;;;;;7285782;19;20189;-80
2023/06/11 02:32:28;;;;;;;12.33;8.83;;;21.40;99.90;;;;;;7306892;19;20184;-80
2023/06/11 02:34:55;;;;;;;13.67;8.63;;;21.40;99.90;;;;;;7284286;19;20653;-80
2023/06/11 02:37:20;;;;;;;13.97;9.47;;;21.40;99.90;;;;;;7282695;19;20191;-79
2023/06/11 02:39:46;;;;;;;12.63;9.00;;;21.40;99.90;;;;;;7285523;19;20196;-80
2023/06/11 02:42:12;;;;;;;12.80;9.27;;;21.40;99.90;;;;;;7284532;19;20185;-79
2023/06/11 02:44:40;;;;;;;14.40;9.37;;;21.40;99.90;;;;;;7286895;19;20184;-80
2023/06/11 02:47:06;;;;;;;14.27;8.90;;;21.30;99.90;;;;;;7284531;19;20664;-79
2023/06/11 02:49:32;;;;;;;15.27;9.60;;;21.20;99.90;;;;;;7285644;19;20297;-79
2023/06/11 02:51:58;;;;;;;16.53;9.33;;;21.10;99.90;;;;;;7308097;19;20189;-80
2023/06/11 02:54:24;;;;;;;14.77;8.90;;;21.00;99.90;;;;;;7285404;19;20194;-80
2023/06/11 02:56:49;;;;;;;14.27;9.83;;;20.90;99.90;;;;;;7286295;19;20193;-80
2023/06/11 02:59:15;;;;;;;15.33;8.97;;;20.90;99.90;;;;;;7285561;19;20192;-80
2023/06/11 03:01:41;;;;;;;14.33;9.90;;;21.00;99.90;;;;;;7285078;19;20530;-80
2023/06/11 03:04:08;;;;;;;14.57;9.13;;;20.90;99.90;;;;;;7284847;19;20189;-80
2023/06/11 03:06:34;;;;;;;14.20;8.67;;;20.90;99.90;;;;;;7285050;19;20192;-80
2023/06/11 03:09:01;;;;;;;16.27;9.60;;;20.90;99.90;;;;;;7287051;19;20214;-80
2023/06/11 03:11:29;;;;;;;15.13;9.33;;;20.80;99.90;;;;;;7309682;19;20200;-80
2023/06/11 03:13:55;;;;;;;15.10;9.47;;;20.70;99.90;;;;;;7286804;19;20213;-80
2023/06/11 03:16:21;;;;;;;12.20;8.87;;;20.60;99.90;;;;;;7284818;19;20193;-80
2023/06/11 03:18:47;;;;;;;12.53;9.07;;;20.70;99.90;;;;;;7284509;19;20216;-81
2023/06/11 03:21:13;;;;;;;13.77;9.10;;;20.60;99.90;;;;;;7284830;19;20204;-80
2023/06/11 03:23:39;;;;;;;13.43;9.90;;;20.60;99.90;;;;;;7284274;19;20218;-80
2023/06/11 03:26:05;;;;;;;14.67;9.23;;;20.50;99.90;;;;;;7283449;19;20188;-80
2023/06/11 03:28:36;;;;;;;14.27;8.83;;;20.50;99.90;;;;;;7284647;19;20213;-80
2023/06/11 03:31:03;;;;;;;13.07;9.70;;;20.50;99.90;;;;;;7285317;19;20236;-80
2023/06/11 03:33:29;;;;;;;12.47;8.67;;;20.50;99.90;;;;;;7302944;19;20605;-79
2023/06/11 03:35:55;;;;;;;15.77;8.97;;;20.50;99.90;;;;;;7298276;19;20189;-79
2023/06/11 03:38:24;;;;;;;13.97;9.20;;;20.50;99.90;;;;;;7284568;19;20210;-80
2023/06/11 03:40:51;;;;;;;13.90;8.67;;;20.40;99.90;;;;;;7283076;19;20674;-80
2023/06/11 03:43:17;;;;;;;14.63;8.73;;;20.40;99.90;;;;;;7284790;19;20192;-80
2023/06/11 03:45:44;;;;;;;13.63;9.00;;;20.50;99.90;;;;;;7284729;19;20192;-79
2023/06/11 03:48:16;;;;;;;15.37;8.70;;;20.50;99.90;;;;;;7288430;19;20192;-80
2023/06/11 03:50:42;;;;;;;12.57;8.23;;;20.60;99.90;;;;;;7292127;19;20201;-79
2023/06/11 03:53:08;;;;;;;13.60;8.57;;;20.60;99.90;;;;;;7290272;19;20189;-80
2023/06/11 03:55:34;;;;;;;13.00;8.57;;;20.50;99.90;;;;;;7289652;19;20188;-80
2023/06/11 03:58:00;;;;;;;14.80;8.43;;;20.60;99.90;;;;;;7299816;19;20284;-80
2023/06/11 04:00:30;;;;;;;12.60;9.00;;;20.50;99.90;;;;;;7310178;19;20193;-80
2023/06/11 04:02:56;;;;;;;12.07;8.40;;;20.60;99.90;;;;;;7288308;19;20192;-80
2023/06/11 04:05:23;;;;;;;13.67;8.70;;;20.50;99.90;;;;;;7289123;19;20230;-79
2023/06/11 04:07:54;;;;;;;13.43;8.30;;;20.50;99.90;;;;;;7290015;19;20187;-79
2023/06/11 04:10:22;;;;;;;14.03;8.80;;;20.60;99.90;;;;;;7290054;19;20189;-79
2023/06/11 04:12:53;;;;;;;12.07;9.00;;;20.60;99.90;;;;;;7288907;19;20189;-80
2023/06/11 04:15:20;;;;;;;13.87;9.30;;;20.70;99.90;;;;;;7290138;19;20198;-81
2023/06/11 04:17:46;;;;;;;13.10;9.67;;;20.80;99.90;;;;;;7286496;19;20192;-80
2023/06/11 04:20:12;;;;;;;14.93;9.63;;;20.70;99.90;;;;;;7289716;19;20530;-79
2023/06/11 04:22:38;;;;;;;14.27;9.40;;;20.60;99.90;;;;;;7288760;19;20189;-79
2023/06/11 04:25:06;;;;;;;13.77;9.40;;;20.60;99.90;;;;;;7290033;19;20697;-80
2023/06/11 04:27:33;;;;;;;12.40;8.80;;;20.60;99.90;;;;;;7288823;19;20664;-80
2023/06/11 04:30:01;;;;;;;12.90;9.17;;;21.00;99.90;;;;;;7296674;19;20185;-79
2023/06/11 04:32:34;;;;;;;12.33;8.30;;;21.80;99.90;;;;;;7311668;19;20268;-80
2023/06/11 04:35:02;;;;;;;13.10;8.87;;;22.60;99.90;;;;;;7274907;19;20181;-79
2023/06/11 04:37:38;;;;;;;15.85;9.02;;;23.70;99.90;;;;;;7310848;19;20214;-79
2023/06/11 04:40:09;;;;;;;12.43;8.60;;;24.70;99.90;;;;;;7186679;19;2004463;-79
2023/06/11 04:42:38;;;;;;;12.52;8.20;;;25.50;99.90;;;;;;7287407;19;20280;-79
2023/06/11 04:45:07;;;;;;;12.60;8.35;;;26.20;99.90;;;;;;7288320;19;20277;-79
2023/06/11 04:47:34;;;;;;;12.38;8.23;;;27.00;99.90;;;;;;7286951;19;20193;-79
2023/06/11 04:50:04;;;;;;;12.52;8.57;;;27.50;99.90;;;;;;7302294;19;20226;-80
2023/06/11 04:52:32;;;;;;;13.30;8.07;;;27.90;99.90;;;;;;7297902;19;20295;-79
2023/06/11 04:55:00;;;;;;;11.15;7.75;;;28.40;99.90;;;;;;7308584;19;20185;-79
2023/06/11 04:57:26;;;;;;;12.10;7.68;;;29.00;99.90;;;;;;7290619;19;20185;-79
2023/06/11 04:59:52;;;;;;;14.55;8.38;;;29.40;99.90;;;;;;7287777;19;20220;-79
2023/06/11 05:02:21;;;;;;;15.73;8.35;;;29.80;99.90;;;;;;7288271;19;20657;-80
2023/06/11 05:04:53;;;;;;;10.95;7.60;;;29.80;99.90;;;;;;7288346;19;20193;-79
2023/06/11 05:07:22;;;;;;;10.88;7.72;;;30.20;99.90;;;;;;7288451;19;20186;-80
2023/06/11 05:09:47;;;;;;;10.55;7.88;;;30.60;99.90;;;;;;7287772;19;20181;-79
2023/06/11 05:12:15;;;;;;;13.38;8.15;;;31.10;99.90;;;;;;7288553;19;20204;-79
2023/06/11 05:14:42;;;;;;;11.10;7.32;;;31.40;99.90;;;;;;7287212;19;20231;-79
2023/06/11 05:17:08;;;;;;;11.40;8.02;;;31.60;99.90;;;;;;7287267;19;20197;-79
2023/06/11 05:19:33;;;;;;;12.38;8.18;;;32.30;99.90;;;;;;7286900;19;20546;-79
2023/06/11 05:22:00;;;;;;;12.65;8.43;;;32.50;97.80;;;;;;7303888;19;20599;-79
2023/06/11 05:24:29;;;;;;;11.95;7.80;;;32.50;96.70;;;;;;7310446;19;20189;-80
2023/06/11 05:26:59;;;;;;;11.60;7.90;;;32.70;96.00;;;;;;7286302;19;20284;-79
2023/06/11 05:29:27;;;;;;;12.80;7.65;;;32.90;95.70;;;;;;7286272;19;20256;-79
2023/06/11 05:31:56;;;;;;;10.57;7.90;;;33.30;94.80;;;;;;7288100;19;20244;-80
2023/06/11 05:34:23;;;;;;;10.38;7.38;;;33.80;93.70;;;;;;7286559;19;20184;-79
2023/06/11 05:36:50;;;;;;;12.25;8.27;;;34.30;92.30;;;;;;7287666;19;20205;-79
2023/06/11 05:39:17;;;;;;;11.93;7.85;;;34.50;92.50;;;;;;7286001;19;20181;-79
2023/06/11 05:41:43;;;;;;;12.00;7.32;;;34.60;90.80;;;;;;7286442;19;20304;-79
2023/06/11 05:44:09;;;;;;;9.40;6.95;;;34.80;90.30;;;;;;7288373;19;20193;-80
2023/06/11 05:46:36;;;;;;;11.13;7.30;;;35.00;88.00;;;;;;7285968;19;20189;-80
2023/06/11 05:49:03;;;;;;;10.85;7.30;;;35.60;87.60;;;;;;7285997;19;20248;-80
2023/06/11 05:51:29;;;;;;;11.88;7.32;;;36.20;84.10;;;;;;7306297;19;20193;-80
2023/06/11 05:53:55;;;;;;;13.50;8.05;;;36.60;82.70;;;;;;7286565;19;20181;-79
2023/06/11 05:56:21;;;;;;;9.98;7.28;;;36.40;80.10;;;;;;7286882;19;20273;-79
2023/06/11 05:58:48;;;;;;;10.82;7.15;;;36.30;79.70;;;;;;7286873;19;20184;-79
2023/06/11 06:01:15;;;;;;;10.02;7.18;;;36.40;78.30;;;;;;7285888;19;20536;-79
2023/06/11 06:03:41;;;;;;;10.88;7.03;;;36.80;77.60;;;;;;7287887;19;20185;-80
2023/06/11 06:06:08;;;;;;;9.60;7.15;;;37.30;75.80;;;;;;7285855;19;20625;-80
2023/06/11 06:08:35;;;;;;;10.20;6.95;;;37.60;75.30;;;;;;7285929;19;20230;-80
2023/06/11 06:11:01;;;;;;;12.85;7.13;;;37.80;74.20;;;;;;7286134;19;20189;-80
2023/06/11 06:13:27;;;;;;;9.77;7.22;;;38.00;72.90;;;;;;7308127;19;20199;-80
2023/06/11 06:15:56;;;;;;;13.43;7.15;;;38.10;71.50;;;;;;7287367;19;20188;-80
2023/06/11 06:18:27;;;;;;;10.45;7.00;;;37.50;71.20;;;;;;7287451;19;20662;-80
2023/06/11 06:20:52;;;;;;;9.07;6.43;;;36.80;70.60;;;;;;7285236;19;20188;-80
2023/06/11 06:23:21;;;;;;;10.02;7.53;;;36.60;72.50;;;;;;7288850;19;20186;-80
2023/06/11 06:25:54;;;;;;;9.30;6.30;;;36.80;72.40;;;;;;7291662;19;20290;-80
2023/06/11 06:28:20;;;;;;;9.60;6.85;;;37.50;72.00;;;;;;7285970;19;20185;-80
2023/06/11 06:30:49;;;;;;;8.45;6.95;;;37.60;69.80;;;;;;7284934;19;20221;-80
2023/06/11 06:33:15;;;;;;;13.52;7.20;;;36.50;69.80;;;;;;7284547;19;20189;-80
2023/06/11 06:35:40;;;;;;;11.32;7.13;;;35.60;71.90;;;;;;7285958;19;20184;-81
2023/06/11 06:38:07;;;;;;;10.13;6.85;;;36.00;71.90;;;;;;7285881;19;20191;-80
2023/06/11 06:40:35;;;;;;;9.60;6.93;;;36.10;72.10;;;;;;7285706;19;20637;-80
2023/06/11 06:43:01;;;;;;;10.98;6.95;;;35.90;72.80;;;;;;7291538;19;20259;-80
2023/06/11 06:45:33;;;;;;;10.63;6.95;;;35.50;73.30;;;;;;7286210;19;20229;-80
2023/06/11 06:48:05;;;;;;;10.98;6.90;;;35.20;73.90;;;;;;7284655;19;20202;-80
2023/06/11 06:50:31;;;;;;;9.25;6.40;;;35.40;73.50;;;;;;7286851;19;20684;-80
2023/06/11 06:52:58;;;;;;;10.70;6.53;;;35.30;73.70;;;;;;7308168;19;20185;-80
2023/06/11 06:55:24;;;;;;;10.55;6.47;;;34.80;73.80;;;;;;7283780;19;20270;-80
2023/06/11 06:57:55;;;;;;;10.13;6.70;;;34.90;74.20;;;;;;7286759;19;20191;-79
2023/06/11 07:00:21;;;;;;;10.23;6.38;;;34.90;74.30;;;;;;7286219;19;20253;-79
2023/06/11 07:02:46;;;;;;;10.32;6.80;;;34.70;74.70;;;;;;7284641;19;20188;-80
2023/06/11 07:05:13;;;;;;;10.18;6.75;;;35.60;74.20;;;;;;7285045;19;20192;-80
2023/06/11 07:07:38;;;;;;;10.55;6.53;;;36.00;72.40;;;;;;7285093;19;20200;-80
2023/06/11 07:10:05;;;;;;;10.18;6.65;;;36.50;73.70;;;;;;7284801;19;20201;-80
2023/06/11 07:12:31;;;;;;;9.57;6.43;;;36.90;72.50;;;;;;7289756;19;20184;-80
2023/06/11 07:14:57;;;;;;;9.02;7.00;;;37.10;71.50;;;;;;7308412;19;20280;-80
2023/06/11 07:17:25;;;;;;;11.70;7.10;;;36.70;70.90;;;;;;7284735;19;20202;-79
2023/06/11 07:19:52;;;;;;;8.27;6.53;;;36.30;71.50;;;;;;7284172;19;20299;-79
2023/06/11 07:22:17;;;;;;;10.60;7.18;;;36.30;71.20;;;;;;7281721;19;20222;-80
2023/06/11 07:24:47;;;;;;;9.63;6.57;;;37.00;71.50;;;;;;7284881;19;20193;-79
2023/06/11 07:27:14;;;;;;;10.02;6.57;;;37.60;71.30;;;;;;7284812;19;20628;-80
2023/06/11 07:29:40;;;;;;;10.13;6.70;;;38.70;69.60;;;;;;7285518;19;20201;-80
2023/06/11 07:32:07;;;;;;;9.20;6.93;;;37.80;67.80;;;;;;7283079;19;20201;-81
2023/06/11 07:34:33;;;;;;;8.93;7.07;;;37.30;68.90;;;;;;7284611;19;20192;-80
2023/06/11 07:36:59;;;;;;;11.57;7.22;;;37.60;68.60;;;;;;7306478;19;20210;-81
2023/06/11 07:39:25;;;;;;;10.85;6.40;;;37.40;69.10;;;;;;7284339;19;20248;-79
2023/06/11 07:41:51;;;;;;;9.82;6.35;;;37.70;69.60;;;;;;7283097;19;20186;-80
2023/06/11 07:44:17;;;;;;;11.27;7.05;;;38.20;67.90;;;;;;7285315;19;20218;-80
2023/06/11 07:46:45;;;;;;;11.35;6.40;;;38.60;66.90;;;;;;7283417;19;20210;-80
2023/06/11 07:49:11;;;;;;;8.55;6.40;;;39.00;67.00;;;;;;7279423;19;20506;-80
2023/06/11 07:51:36;;;;;;;8.30;6.53;;;38.80;65.30;;;;;;7284255;19;20193;-81
2023/06/11 07:54:06;;;;;;;9.07;6.82;;;39.30;65.60;;;;;;7282314;19;20661;-80
2023/06/11 07:56:31;;;;;;;12.05;6.90;;;38.90;65.80;;;;;;7286035;19;20535;-80
2023/06/11 07:58:57;;;;;;;9.48;6.60;;;38.40;66.00;;;;;;7306016;19;20197;-80
2023/06/11 08:01:23;;;;;;;12.35;7.25;;;38.30;66.50;;;;;;7279837;19;20180;-80
2023/06/11 08:03:48;;;;;;;10.93;6.50;;;38.70;66.90;;;;;;7284751;19;20271;-81
2023/06/11 08:06:15;;;;;;;11.93;6.82;;;39.90;66.20;;;;;;7284363;19;20188;-80
2023/06/11 08:08:40;;;;;;;9.38;6.80;;;39.50;65.70;;;;;;7282814;19;20240;-80
2023/06/11 08:11:06;;;;;;;13.85;7.32;;;38.90;65.60;;;;;;7282839;19;20256;-80
2023/06/11 08:13:34;;;;;;;10.30;6.78;;;39.50;65.60;;;;;;7282900;19;20185;-80
2023/06/11 08:16:01;;;;;;;9.20;6.70;;;39.20;65.70;;;;;;7300211;19;20180;-80
2023/06/11 08:18:26;;;;;;;9.25;6.78;;;39.60;65.50;;;;;;7303501;19;20214;-82
2023/06/11 08:20:53;;;;;;;10.85;6.85;;;40.50;63.60;;;;;;7282470;19;20641;-82
2023/06/11 08:23:19;;;;;;;9.00;6.35;;;41.40;62.80;;;;;;7284517;19;20659;-82
2023/06/11 08:25:45;;;;;;;8.65;6.55;;;42.40;62.10;;;;;;7281744;19;20193;-82
2023/06/11 08:28:11;;;;;;;9.23;6.35;;;42.20;60.60;;;;;;7282750;19;20312;-82
2023/06/11 08:30:36;;;;;;;10.43;6.18;;;42.70;60.00;;;;;;7281673;19;20184;-82
2023/06/11 08:33:02;;;;;;;9.98;6.50;;;42.90;59.30;;;;;;7284489;19;20185;-82
2023/06/11 08:35:28;;;;;;;9.98;6.57;;;42.50;58.40;;;;;;7310462;19;20205;-82
2023/06/11 08:37:54;;;;;;;8.68;6.03;;;42.60;58.40;;;;;;7290360;19;20651;-83
2023/06/11 08:40:21;;;;;;;8.93;6.10;;;43.00;58.30;;;;;;7288989;19;20197;-82
2023/06/11 08:42:47;;;;;;;9.45;6.93;;;43.90;57.70;;;;;;7287733;19;20270;-82
2023/06/11 08:45:13;;;;;;;8.43;6.30;;;42.90;58.00;;;;;;7289100;19;20185;-82
2023/06/11 08:47:42;;;;;;;8.25;6.00;;;42.50;58.60;;;;;;7288771;19;20338;-85
2023/06/11 08:50:10;;;;;;;7.43;5.85;;;43.40;58.10;;;;;;7289556;19;20270;-86
2023/06/11 08:52:38;;;;;;;8.60;5.80;;;44.30;57.00;;;;;;7287971;19;20177;-86
2023/06/11 08:55:04;;;;;;;7.13;5.80;;;44.30;54.90;;;;;;7288489;19;20194;-84
2023/06/11 08:57:31;;;;;;;8.52;6.45;;;43.60;55.90;;;;;;7307476;19;20291;-83
2023/06/11 08:59:56;;;;;;;9.38;5.72;;;43.90;55.90;;;;;;7309265;19;20185;-83
2023/06/11 09:02:22;;;;;;;8.73;6.10;;;44.20;56.10;;;;;;7288706;19;20197;-83
2023/06/11 09:04:49;;;;;;;8.45;5.95;;;44.40;55.30;;;;;;7288663;19;20226;-83
2023/06/11 09:07:25;;;;;;;10.52;6.13;;;43.90;56.60;;;;;;7288307;19;20576;-83
2023/06/11 09:10:08;;;;;;;9.05;6.20;;;43.70;55.10;;;;;;7290585;19;20697;-82
2023/06/11 09:12:34;;;;;;;7.72;5.90;;;43.60;54.80;;;;;;7269531;19;20185;-82
2023/06/11 09:15:00;;;;;;;8.75;5.95;;;44.50;54.50;;;;;;7315977;19;20719;-82
2023/06/11 09:17:36;;;;;;;9.20;5.72;;;45.50;53.20;;;;;;7307106;19;20184;-83
2023/06/11 09:20:04;;;;;;;9.10;5.55;;;45.50;53.30;;;;;;7274617;19;20188;-83
2023/06/11 09:22:30;;;;;;;7.38;5.57;;;45.60;52.10;;;;;;7309788;19;20209;-82
2023/06/11 09:24:56;;;;;;;6.70;5.60;;;45.60;52.50;;;;;;7302278;19;20185;-83
2023/06/11 09:27:22;;;;;;;8.93;5.50;;;44.70;52.60;;;;;;7287195;19;20188;-83
2023/06/11 09:29:48;;;;;;;9.15;5.80;;;43.90;52.30;;;;;;7289412;19;20421;-83
2023/06/11 09:32:13;;;;;;;8.57;5.93;;;42.80;53.60;;;;;;7287859;19;20544;-83
2023/06/11 09:34:42;;;;;;;6.78;5.43;;;42.00;53.80;;;;;;7288780;19;20200;-83
2023/06/11 09:37:11;;;;;;;8.50;5.85;;;42.00;54.30;;;;;;7290825;19;20192;-83
2023/06/11 09:39:39;;;;;;;9.93;5.80;;;42.60;54.50;;;;;;7301060;19;20189;-82
2023/06/11 09:42:05;;;;;;;7.25;4.90;;;42.40;53.80;;;;;;7300820;19;20202;-84
2023/06/11 09:44:33;;;;;;;7.00;5.45;;;41.80;54.30;;;;;;7315045;19;20189;-83
2023/06/11 09:47:01;;;;;;;6.85;4.90;;;43.40;54.00;;;;;;7320258;19;20184;-84
2023/06/11 09:49:27;;;;;;;7.32;4.80;;;45.10;55.50;;;;;;7288926;19;20215;-83
2023/06/11 09:51:56;;;;;;;7.60;5.57;;;45.50;50.70;;;;;;7288127;19;20197;-83
2023/06/11 09:54:22;;;;;;;6.30;5.03;;;45.20;50.70;;;;;;7285979;19;20174;-83
2023/06/11 09:56:48;;;;;;;6.10;4.70;;;46.00;49.50;;;;;;7286226;19;20193;-83
2023/06/11 09:59:17;;;;;;;7.22;5.00;;;45.40;50.10;;;;;;7286915;19;20554;-83
2023/06/11 10:01:47;;;;;;;8.07;6.00;;;45.60;49.50;;;;;;7286162;19;20200;-83
2023/06/11 10:04:12;;;;;;;6.93;4.80;;;45.00;49.70;;;;;;7287415;19;20193;-83
2023/06/11 10:06:45;;;;;;;8.60;5.28;;;44.00;50.30;;;;;;7287126;19;20185;-83
2023/06/11 10:09:13;;;;;;;8.25;5.30;;;43.30;51.60;;;;;;7288031;19;20193;-84
2023/06/11 10:11:40;;;;;;;6.43;5.22;;;44.10;51.60;;;;;;7286795;19;20196;-82
2023/06/11 10:14:11;;;;;;;6.75;4.93;;;44.80;50.00;;;;;;7285358;19;20195;-83
2023/06/11 10:16:37;;;;;;;6.93;4.72;;;44.60;50.80;;;;;;7286983;19;20200;-83
2023/06/11 10:19:07;;;;;;;6.50;4.75;;;44.10;51.30;;;;;;7286081;19;20200;-83
2023/06/11 10:21:49;;;;;;;7.13;4.85;;;44.60;51.70;;;;;;7305691;19;20276;-84
2023/06/11 10:24:26;;;;;;;6.90;4.88;;;44.00;49.90;;;;;;7286644;19;20192;-84
2023/06/11 10:27:14;;;;;;;9.45;6.78;;;43.30;50.80;;;;;;7286793;19;21540;-83
2023/06/11 10:29:47;;;;;;;8.98;5.90;;;43.30;51.30;;;;;;7183226;19;2004498;-83
2023/06/11 10:32:14;;;;;;;7.38;5.13;;;42.00;52.80;;;;;;7284461;19;20185;-83
2023/06/11 10:34:41;;;;;;;6.60;5.13;;;42.30;52.20;;;;;;7283329;19;20220;-83
2023/06/11 10:37:07;;;;;;;7.88;4.97;;;41.70;52.30;;;;;;7286903;19;20650;-83
2023/06/11 10:39:32;;;;;;;6.65;4.60;;;41.10;52.90;;;;;;7285469;19;20195;-83
2023/06/11 10:42:00;;;;;;;6.35;4.55;;;41.10;52.20;;;;;;7307666;19;20275;-83
2023/06/11 10:44:26;;;;;;;8.30;4.68;;;41.50;54.20;;;;;;7285302;19;20187;-83
2023/06/11 10:46:53;;;;;;;6.20;4.65;;;41.70;52.30;;;;;;7285450;19;20324;-84
2023/06/11 10:49:25;;;;;;;8.85;4.45;;;41.60;52.40;;;;;;7286899;19;20244;-83
2023/06/11 10:51:52;;;;;;;7.28;4.50;;;41.20;52.10;;;;;;7285677;19;20189;-83
2023/06/11 10:54:32;;;;;;;8.15;4.60;;;40.90;52.30;;;;;;7285130;19;20640;-83
2023/06/11 10:57:02;;;;;;;6.80;4.65;;;40.60;52.30;;;;;;7286311;19;20216;-83
2023/06/11 10:59:30;;;;;;;7.25;4.72;;;39.80;53.40;;;;;;7285605;19;20617;-83
2023/06/11 11:01:56;;;;;;;6.97;4.15;;;39.50;55.10;;;;;;7284445;19;20659;-83
2023/06/11 11:04:22;;;;;;;6.30;4.60;;;39.70;53.50;;;;;;7284785;19;20633;-83
2023/06/11 11:06:51;;;;;;;5.78;4.20;;;40.70;53.40;;;;;;7285541;19;20248;-82
2023/06/11 11:09:22;;;;;;;5.47;4.45;;;40.80;52.60;;;;;;7283889;19;20185;-83
2023/06/11 11:11:52;;;;;;;7.65;4.53;;;40.80;52.20;;;;;;7284420;19;20191;-84
2023/06/11 11:14:18;;;;;;;6.90;4.72;;;40.90;53.20;;;;;;7284718;19;20195;-84
2023/06/11 11:16:48;;;;;;;9.02;4.53;;;40.60;51.70;;;;;;7286746;19;20189;-82
2023/06/11 11:19:14;;;;;;;6.97;4.97;;;39.30;52.90;;;;;;7285979;19;20248;-84
2023/06/11 11:21:39;;;;;;;6.35;4.80;;;39.20;53.30;;;;;;7283571;19;20185;-83
2023/06/11 11:24:12;;;;;;;6.95;4.43;;;40.60;52.60;;;;;;7283338;19;20188;-83
2023/06/11 11:26:42;;;;;;;7.10;4.50;;;41.80;52.20;;;;;;7284772;19;20193;-85
2023/06/11 11:29:08;;;;;;;6.32;4.88;;;42.30;52.50;;;;;;7287121;19;20480;-84
2023/06/11 11:31:35;;;;;;;7.35;4.60;;;42.20;51.60;;;;;;7289666;19;20738;-83
2023/06/11 11:34:01;;;;;;;6.80;4.40;;;41.30;52.20;;;;;;7296123;19;20209;-84
2023/06/11 11:36:27;;;;;;;7.85;4.57;;;40.80;53.90;;;;;;7305734;19;20188;-83
2023/06/11 11:38:53;;;;;;;7.65;4.53;;;40.60;52.20;;;;;;7283970;19;20203;-83
2023/06/11 11:41:21;;;;;;;6.82;4.70;;;40.10;53.10;;;;;;7283596;19;20218;-83
2023/06/11 11:43:49;;;;;;;6.13;4.57;;;39.20;53.70;;;;;;7284611;19;20525;-84
2023/06/11 11:46:23;;;;;;;8.57;4.60;;;39.10;55.10;;;;;;7283515;19;20181;-83
2023/06/11 11:48:57;;;;;;;7.32;4.22;;;39.10;54.10;;;;;;7284135;19;20187;-83
2023/06/11 11:51:25;;;;;;;5.05;4.32;;;39.70;52.60;;;;;;7284750;19;20184;-83
2023/06/11 11:53:53;;;;;;;6.97;4.50;;;39.40;52.70;;;;;;7282279;19;20209;-83
2023/06/11 11:56:19;;;;;;;6.50;4.30;;;40.50;53.50;;;;;;7284132;19;20185;-83
2023/06/11 11:58:45;;;;;;;5.13;4.10;;;40.90;51.40;;;;;;7285156;19;20230;-83
2023/06/11 12:01:22;;;;;;;8.00;4.28;;;41.80;50.50;;;;;;7282584;19;20193;-83
2023/06/11 12:04:01;;;;;;;5.53;4.15;;;41.60;51.20;;;;;;7283838;19;20193;-83
2023/06/11 12:06:30;;;;;;;8.73;4.38;;;40.20;51.40;;;;;;7284440;19;20188;-83
2023/06/11 12:08:55;;;;;;;6.15;4.53;;;38.70;50.80;;;;;;7287498;19;20230;-83
2023/06/11 12:11:21;;;;;;;5.78;4.40;;;38.20;51.60;;;;;;7290677;19;20189;-81
2023/06/11 12:13:47;;;;;;;6.00;4.43;;;37.30;52.70;;;;;;7290852;19;20188;-81
2023/06/11 12:16:14;;;;;;;6.60;4.80;;;36.80;55.40;;;;;;7290250;19;20692;-82
2023/06/11 12:18:40;;;;;;;7.13;4.90;;;36.60;55.10;;;;;;7290123;19;20196;-82
2023/06/11 12:21:07;;;;;;;8.15;4.88;;;36.40;55.60;;;;;;7289493;19;20711;-81
2023/06/11 12:23:33;;;;;;;7.85;4.80;;;35.90;57.60;;;;;;7289405;19;20185;-83
2023/06/11 12:26:01;;;;;;;10.43;4.82;;;35.30;57.70;;;;;;7311580;19;20632;-82
2023/06/11 12:28:27;;;;;;;7.78;4.72;;;35.10;58.30;;;;;;7291226;19;20192;-81
2023/06/11 12:30:52;;;;;;;6.78;4.53;;;35.10;59.10;;;;;;7289755;19;20209;-83
2023/06/11 12:33:18;;;;;;;7.50;4.65;;;34.80;58.70;;;;;;7290472;19;20196;-83
2023/06/11 12:35:44;;;;;;;7.13;4.72;;;34.20;58.50;;;;;;7288398;19;20185;-82
2023/06/11 12:38:10;;;;;;;7.15;4.30;;;34.10;59.40;;;;;;7291167;19;20608;-81
2023/06/11 12:40:37;;;;;;;7.25;4.47;;;33.90;58.60;;;;;;7290553;19;20185;-81
2023/06/11 12:43:03;;;;;;;6.53;4.60;;;34.00;58.50;;;;;;7287198;19;20601;-82